Terminal Aerodrome Forecast
Issued by NWS Goodland, KS

Home | Current Version | Previous Version | Text Only | Print | Product List | Glossary On
Versions: 1 2 3 4 5 6 7 8 9 10 11
000
FTUS43 KGLD 252339
TAFGLD
TAF
KGLD 252339Z 2600/2624 34007KT P6SM SCT080 SCT300
     FM260600 29012KT P6SM SKC
     FM261200 33015G25KT P6SM SKC=

USA.gov is the U.S. government's official web portal to all federal, state and local government web resources and services.